createdAt,value
2022-09-17T00:02:18.275Z,1.00
2022-09-17T00:04:45.011Z,1.00
2022-09-17T00:07:11.756Z,1.00
2022-09-17T00:09:38.795Z,99.90
2022-09-17T00:12:05.717Z,99.90
2022-09-17T00:14:32.500Z,99.90
2022-09-17T00:17:01.878Z,99.90
2022-09-17T00:19:28.880Z,99.90
2022-09-17T00:21:55.631Z,1.00
2022-09-17T00:24:22.913Z,1.00
2022-09-17T00:26:50.271Z,1.00
2022-09-17T00:29:16.973Z,1.00
2022-09-17T00:31:43.838Z,1.00
2022-09-17T00:34:11.935Z,99.90
2022-09-17T00:36:39.493Z,99.90
2022-09-17T00:39:08.002Z,99.90
2022-09-17T00:41:35.998Z,99.90
2022-09-17T00:44:40.520Z,1.00
2022-09-17T00:47:13.832Z,1.00
2022-09-17T00:49:40.874Z,1.00
2022-09-17T00:52:12.981Z,1.00
2022-09-17T00:54:42.368Z,1.00
2022-09-17T00:57:09.243Z,1.00
2022-09-17T00:59:36.614Z,1.00
2022-09-17T01:02:04.305Z,1.00
2022-09-17T01:04:31.068Z,1.00
2022-09-17T01:07:18.034Z,1.00
2022-09-17T01:09:58.701Z,1.00
2022-09-17T01:12:41.010Z,1.00
2022-09-17T01:15:22.571Z,1.00
2022-09-17T01:18:01.568Z,1.00
2022-09-17T01:20:59.443Z,1.00
2022-09-17T01:23:35.549Z,1.00
2022-09-17T01:26:05.393Z,1.00
2022-09-17T01:28:42.918Z,1.00
2022-09-17T01:31:35.077Z,1.00
2022-09-17T01:34:23.460Z,99.90
2022-09-17T01:36:56.576Z,99.90
2022-09-17T01:39:58.174Z,89.90
2022-09-17T01:42:29.158Z,99.90
2022-09-17T01:44:58.303Z,99.90
2022-09-17T01:47:38.776Z,99.90
2022-09-17T01:50:13.180Z,98.40
2022-09-17T01:52:42.142Z,99.90
2022-09-17T01:55:12.148Z,23.90
2022-09-17T01:57:50.376Z,1.00
2022-09-17T02:00:17.828Z,1.00
2022-09-17T02:02:55.552Z,1.00
2022-09-17T02:05:26.925Z,1.00
2022-09-17T02:07:57.025Z,1.00
2022-09-17T02:10:30.444Z,99.90
2022-09-17T02:13:02.758Z,99.90
2022-09-17T02:15:39.826Z,1.00
2022-09-17T02:18:27.345Z,1.00
2022-09-17T02:21:04.101Z,1.00
2022-09-17T02:23:35.420Z,1.00
2022-09-17T02:26:15.365Z,1.00
2022-09-17T02:28:46.310Z,1.00
2022-09-17T02:31:13.644Z,99.90
2022-09-17T02:33:42.085Z,99.90
2022-09-17T02:36:08.933Z,99.90
2022-09-17T02:38:35.928Z,99.90
2022-09-17T02:41:18.686Z,99.90
2022-09-17T02:43:56.359Z,99.90
2022-09-17T02:46:40.877Z,99.90
2022-09-17T02:49:46.005Z,99.90
2022-09-17T02:52:20.313Z,97.90
2022-09-17T02:54:53.033Z,1.40
2022-09-17T02:57:47.690Z,24.70
2022-09-17T03:00:17.108Z,2.70
2022-09-17T03:02:56.249Z,1.00
2022-09-17T03:05:23.531Z,63.00
2022-09-17T03:07:50.620Z,99.90
2022-09-17T03:10:17.784Z,48.60
2022-09-17T03:12:44.536Z,99.90
2022-09-17T03:15:11.298Z,99.90
2022-09-17T03:17:38.049Z,99.90
2022-09-17T03:20:05.796Z,99.90
2022-09-17T03:22:32.608Z,99.90
2022-09-17T03:24:59.348Z,99.90
2022-09-17T03:27:26.230Z,99.90
2022-09-17T03:29:52.987Z,99.90
2022-09-17T03:32:19.728Z,99.90
2022-09-17T03:34:47.052Z,99.90
2022-09-17T03:37:14.002Z,99.90
2022-09-17T03:39:40.794Z,99.90
2022-09-17T03:42:07.713Z,24.90
2022-09-17T03:44:34.662Z,1.00
2022-09-17T03:47:01.432Z,1.00
2022-09-17T03:49:28.283Z,1.00
2022-09-17T03:51:55.014Z,1.00
2022-09-17T03:54:21.856Z,1.00
2022-09-17T03:56:48.646Z,1.00
2022-09-17T03:59:15.379Z,1.00
2022-09-17T04:01:42.296Z,1.00
2022-09-17T04:04:09.283Z,1.00
2022-09-17T04:06:36.060Z,1.00
2022-09-17T04:09:05.060Z,1.00
2022-09-17T04:11:31.815Z,40.90
2022-09-17T04:13:59.060Z,61.40
2022-09-17T04:16:25.938Z,1.00
2022-09-17T04:18:52.734Z,1.00
2022-09-17T04:21:19.484Z,1.00
2022-09-17T04:23:46.157Z,1.00
2022-09-17T04:26:13.029Z,1.00
2022-09-17T04:28:39.779Z,1.00
2022-09-17T04:31:06.709Z,1.00
2022-09-17T04:33:33.608Z,1.00
2022-09-17T04:36:00.406Z,1.00
2022-09-17T04:38:27.313Z,1.00
2022-09-17T04:40:57.250Z,1.00
2022-09-17T04:43:23.997Z,1.00
2022-09-17T04:45:51.590Z,1.00
2022-09-17T04:48:18.357Z,1.00
2022-09-17T04:50:45.144Z,1.00
2022-09-17T04:53:12.592Z,1.00
2022-09-17T04:55:39.835Z,1.00
2022-09-17T04:58:06.638Z,1.00
2022-09-17T05:00:35.420Z,1.00
2022-09-17T05:03:02.221Z,1.00
2022-09-17T05:05:29.515Z,99.90
2022-09-17T05:07:56.478Z,1.00
2022-09-17T05:10:23.762Z,1.00
2022-09-17T05:12:51.471Z,1.00
2022-09-17T05:15:18.855Z,1.00
2022-09-17T05:17:46.380Z,83.10
2022-09-17T05:20:14.098Z,99.90
2022-09-17T05:22:45.340Z,99.90
2022-09-17T05:25:13.660Z,99.90
2022-09-17T05:27:40.840Z,99.90
2022-09-17T05:30:08.603Z,99.90
2022-09-17T05:32:36.731Z,99.90
2022-09-17T05:35:05.805Z,99.90
2022-09-17T05:37:33.041Z,22.10
2022-09-17T05:40:00.013Z,10.00
2022-09-17T05:42:26.813Z,1.00
2022-09-17T05:44:53.901Z,24.80
2022-09-17T05:47:20.668Z,1.00
2022-09-17T05:49:47.465Z,1.00
2022-09-17T05:52:14.227Z,24.80
2022-09-17T05:54:41.036Z,99.90
2022-09-17T05:57:08.073Z,66.10
2022-09-17T05:59:36.174Z,54.40
2022-09-17T06:02:03.226Z,84.50
2022-09-17T06:04:34.575Z,99.90
2022-09-17T06:07:10.262Z,1.00
2022-09-17T06:09:37.685Z,1.00
2022-09-17T06:12:05.366Z,1.00
2022-09-17T06:14:32.150Z,1.00
2022-09-17T06:16:59.016Z,1.00
2022-09-17T06:19:25.801Z,1.00
2022-09-17T06:21:52.627Z,1.00
2022-09-17T06:24:19.416Z,1.00
2022-09-17T06:26:46.162Z,1.00
2022-09-17T06:29:15.215Z,1.00
2022-09-17T06:31:44.735Z,1.00
2022-09-17T06:34:12.258Z,1.00
2022-09-17T06:36:39.946Z,1.00
2022-09-17T06:39:07.371Z,1.00
2022-09-17T06:41:34.304Z,1.00
2022-09-17T06:44:02.162Z,1.00
2022-09-17T06:46:28.987Z,1.00
2022-09-17T06:48:56.008Z,1.00
2022-09-17T06:51:22.814Z,1.00
2022-09-17T06:53:49.662Z,29.40
2022-09-17T06:56:16.673Z,34.70
2022-09-17T06:58:43.950Z,29.00
2022-09-17T07:01:12.058Z,1.00
2022-09-17T07:03:39.369Z,1.00
2022-09-17T07:06:10.217Z,1.00
2022-09-17T07:08:37.830Z,1.00
2022-09-17T07:11:04.800Z,1.00
2022-09-17T07:13:31.649Z,1.00
2022-09-17T07:16:00.378Z,1.40
2022-09-17T07:18:27.650Z,1.00
2022-09-17T07:20:57.478Z,1.00
2022-09-17T07:23:25.390Z,1.00
2022-09-17T07:25:57.022Z,1.00
2022-09-17T07:28:25.623Z,1.00
2022-09-17T07:30:53.272Z,1.00
2022-09-17T07:33:25.281Z,1.00
2022-09-17T07:35:53.865Z,1.00
2022-09-17T07:38:20.861Z,1.00
2022-09-17T07:40:58.900Z,1.00
2022-09-17T07:43:30.743Z,1.00
2022-09-17T07:46:00.632Z,1.00
2022-09-17T07:48:28.311Z,1.00
2022-09-17T07:50:55.860Z,99.90
2022-09-17T07:53:22.967Z,99.90
2022-09-17T07:55:54.057Z,99.90
2022-09-17T07:58:28.440Z,99.90
2022-09-17T08:01:03.237Z,99.90
2022-09-17T08:03:30.413Z,99.90
2022-09-17T08:06:10.185Z,99.90
2022-09-17T08:08:37.896Z,99.90
2022-09-17T08:11:12.645Z,99.90
2022-09-17T08:13:39.648Z,1.00
2022-09-17T08:16:13.292Z,99.90
2022-09-17T08:18:40.467Z,99.90
2022-09-17T08:21:08.647Z,99.90
2022-09-17T08:23:36.987Z,99.90
2022-09-17T08:26:04.624Z,99.90
2022-09-17T08:28:32.010Z,99.90
2022-09-17T08:31:03.690Z,99.90
2022-09-17T08:33:35.483Z,99.90
2022-09-17T08:36:02.789Z,99.90
2022-09-17T08:38:37.193Z,99.90
2022-09-17T08:41:11.350Z,99.90
2022-09-17T08:43:44.263Z,99.90
2022-09-17T08:46:11.432Z,99.90
2022-09-17T08:48:43.762Z,99.90
2022-09-17T08:51:32.809Z,99.90
2022-09-17T08:54:08.412Z,99.90
2022-09-17T08:56:37.344Z,99.90
2022-09-17T08:59:06.808Z,99.90
2022-09-17T09:01:54.336Z,99.90
2022-09-17T09:04:40.740Z,44.80
2022-09-17T09:07:38.256Z,1.00
2022-09-17T09:10:12.676Z,3.60
2022-09-17T09:12:40.059Z,76.70
2022-09-17T09:15:18.230Z,99.90
2022-09-17T09:17:47.696Z,99.90
2022-09-17T09:20:20.304Z,99.90
2022-09-17T09:22:50.530Z,99.90
2022-09-17T09:25:25.287Z,99.90
2022-09-17T09:28:23.980Z,99.90
2022-09-17T09:31:28.367Z,99.90
2022-09-17T09:33:55.561Z,92.40
2022-09-17T09:36:22.349Z,99.90
2022-09-17T09:39:02.267Z,99.90
2022-09-17T09:41:36.801Z,78.90
2022-09-17T09:44:06.255Z,99.90
2022-09-17T09:46:42.469Z,89.40
2022-09-17T09:49:25.001Z,25.50
2022-09-17T09:52:02.821Z,87.70
2022-09-17T09:54:59.666Z,99.90
2022-09-17T09:57:46.155Z,99.90
2022-09-17T10:00:28.515Z,99.90
2022-09-17T10:03:23.657Z,99.90
2022-09-17T10:05:58.871Z,95.80
2022-09-17T10:08:26.449Z,99.90
2022-09-17T10:10:55.757Z,99.90
2022-09-17T10:13:22.867Z,99.90
2022-09-17T10:15:49.932Z,99.90
2022-09-17T10:18:22.009Z,99.90
2022-09-17T10:20:56.650Z,1.20
2022-09-17T10:23:26.207Z,1.00
2022-09-17T10:25:55.551Z,64.00
2022-09-17T10:28:35.003Z,99.90
2022-09-17T10:31:10.241Z,99.90
2022-09-17T10:33:51.973Z,1.00
2022-09-17T10:36:38.089Z,1.00
2022-09-17T10:39:27.456Z,1.00
2022-09-17T10:42:01.202Z,1.00
2022-09-17T10:44:30.461Z,1.00
2022-09-17T10:47:06.862Z,12.60
2022-09-17T10:49:39.750Z,25.60
2022-09-17T10:52:27.564Z,51.90
2022-09-17T10:55:36.187Z,99.90
2022-09-17T10:58:05.911Z,99.90
2022-09-17T11:00:57.671Z,99.90
2022-09-17T11:03:30.581Z,99.90
2022-09-17T11:06:16.143Z,99.90
2022-09-17T11:08:46.984Z,99.90
2022-09-17T11:11:45.854Z,99.90
2022-09-17T11:14:27.585Z,99.90
2022-09-17T11:17:20.701Z,99.90
2022-09-17T11:20:09.317Z,99.90
2022-09-17T11:22:54.453Z,99.90
2022-09-17T11:25:43.724Z,99.90
2022-09-17T11:28:27.542Z,99.90
2022-09-17T11:31:24.269Z,99.90
2022-09-17T11:34:19.562Z,99.90
2022-09-17T11:36:52.349Z,99.90
2022-09-17T11:39:23.366Z,99.90
2022-09-17T11:41:52.194Z,99.90
2022-09-17T11:44:43.017Z,99.90
2022-09-17T11:47:14.704Z,16.30
2022-09-17T11:49:46.320Z,1.00
2022-09-17T11:52:51.304Z,1.00
2022-09-17T11:55:18.043Z,99.90
2022-09-17T11:57:45.820Z,99.90
2022-09-17T12:00:20.630Z,99.90
2022-09-17T12:02:54.369Z,99.90
2022-09-17T12:05:25.402Z,99.90
2022-09-17T12:08:00.849Z,99.90
2022-09-17T12:11:03.028Z,99.90
2022-09-17T12:13:35.939Z,99.90
2022-09-17T12:16:24.910Z,1.00
2022-09-17T12:19:01.160Z,1.00
2022-09-17T12:21:50.505Z,99.90
2022-09-17T12:24:22.257Z,99.90
2022-09-17T12:27:16.848Z,99.90
2022-09-17T12:30:04.752Z,26.90
2022-09-17T12:33:09.297Z,1.00
2022-09-17T12:36:13.824Z,73.10
2022-09-17T12:39:15.588Z,1.00
2022-09-17T12:42:18.816Z,1.00
2022-09-17T12:45:02.660Z,99.90
2022-09-17T12:47:49.626Z,71.40
2022-09-17T12:50:36.904Z,1.00
2022-09-17T12:53:23.654Z,99.90
2022-09-17T12:56:29.010Z,1.00
2022-09-17T12:59:08.077Z,1.00
2022-09-17T13:01:50.199Z,1.00
2022-09-17T13:04:33.672Z,99.90
2022-09-17T13:07:34.042Z,1.00
2022-09-17T13:10:36.756Z,1.00
2022-09-17T13:13:19.686Z,1.00
2022-09-17T13:15:58.282Z,99.90
2022-09-17T13:18:41.771Z,99.90
2022-09-17T13:21:14.603Z,99.90
2022-09-17T13:23:44.011Z,1.00
2022-09-17T13:26:12.186Z,1.00
2022-09-17T13:28:50.245Z,1.00
2022-09-17T13:31:36.927Z,99.90
2022-09-17T13:34:03.797Z,99.90
2022-09-17T13:36:46.849Z,1.00
2022-09-17T13:39:41.925Z,1.00
2022-09-17T13:42:29.324Z,1.00
2022-09-17T13:45:03.475Z,99.90
2022-09-17T13:47:31.810Z,87.90
2022-09-17T13:50:24.795Z,99.90
2022-09-17T13:52:52.375Z,99.90
2022-09-17T13:55:37.605Z,1.00
2022-09-17T13:58:09.033Z,99.90
2022-09-17T14:00:54.737Z,1.00
2022-09-17T14:03:45.701Z,1.00
2022-09-17T14:06:14.715Z,1.00
2022-09-17T14:08:44.682Z,99.90
2022-09-17T14:11:32.536Z,1.00
2022-09-17T14:14:05.261Z,99.90
2022-09-17T14:16:46.180Z,99.90
2022-09-17T14:19:16.283Z,99.90
2022-09-17T14:21:44.929Z,99.90
2022-09-17T14:24:23.086Z,1.00
2022-09-17T14:27:15.361Z,1.00
2022-09-17T14:30:10.697Z,33.30
2022-09-17T14:33:08.733Z,99.90
2022-09-17T14:35:41.977Z,99.90
2022-09-17T14:38:23.569Z,99.90
2022-09-17T14:41:10.576Z,99.90
2022-09-17T14:43:43.425Z,99.90
2022-09-17T14:46:13.763Z,99.90
2022-09-17T14:48:40.628Z,99.90
2022-09-17T14:51:19.718Z,1.00
2022-09-17T14:54:12.123Z,46.30
2022-09-17T14:56:50.212Z,10.20
2022-09-17T14:59:38.452Z,99.90
2022-09-17T15:02:22.254Z,99.90
2022-09-17T15:04:49.025Z,28.20
2022-09-17T15:07:15.894Z,99.90
2022-09-17T15:09:42.657Z,99.90
2022-09-17T15:12:16.682Z,99.90
2022-09-17T15:14:44.176Z,1.00
2022-09-17T15:17:16.354Z,99.90
2022-09-17T15:19:46.223Z,99.90
2022-09-17T15:22:34.640Z,2.40
2022-09-17T15:25:08.270Z,1.00
2022-09-17T15:27:40.300Z,1.00
2022-09-17T15:30:14.960Z,1.00
2022-09-17T15:32:48.579Z,99.90
2022-09-17T15:35:15.614Z,1.00
2022-09-17T15:38:21.138Z,1.00
2022-09-17T15:40:41.354Z,99.90
2022-09-17T15:43:30.176Z,99.90
2022-09-17T15:46:01.585Z,99.90
2022-09-17T15:48:28.407Z,99.90
2022-09-17T15:50:57.426Z,99.90
2022-09-17T15:53:31.798Z,99.90
2022-09-17T15:56:15.079Z,1.00
2022-09-17T15:58:41.924Z,1.00
2022-09-17T16:01:38.182Z,99.90
2022-09-17T16:04:10.753Z,99.90
2022-09-17T16:06:37.848Z,1.00
2022-09-17T16:09:36.550Z,1.00
2022-09-17T16:12:03.527Z,1.00
2022-09-17T16:14:30.354Z,1.00
2022-09-17T16:16:57.154Z,1.00
2022-09-17T16:19:23.896Z,1.00
2022-09-17T16:21:50.695Z,99.90
2022-09-17T16:24:17.490Z,1.00
2022-09-17T16:26:44.697Z,99.90
2022-09-17T16:29:15.262Z,99.90
2022-09-17T16:31:42.134Z,99.90
2022-09-17T16:34:08.943Z,1.00
2022-09-17T16:36:36.399Z,1.00
2022-09-17T16:39:03.278Z,1.00
2022-09-17T16:41:30.125Z,1.00
2022-09-17T16:43:57.466Z,1.00
2022-09-17T16:46:24.487Z,99.90
2022-09-17T16:48:51.381Z,99.90
2022-09-17T16:51:18.550Z,99.90
2022-09-17T16:53:45.842Z,99.90
2022-09-17T16:56:14.486Z,40.70
2022-09-17T16:58:41.831Z,99.90
2022-09-17T17:01:09.902Z,44.30
2022-09-17T17:03:37.047Z,1.00
2022-09-17T17:06:03.983Z,99.90
2022-09-17T17:08:34.258Z,1.00
2022-09-17T17:11:01.104Z,12.60
2022-09-17T17:13:28.069Z,1.00
2022-09-17T17:15:55.369Z,1.00
2022-09-17T17:18:23.231Z,1.00
2022-09-17T17:20:51.977Z,1.00
2022-09-17T17:23:18.808Z,1.00
2022-09-17T17:25:45.620Z,1.00
2022-09-17T17:28:14.823Z,99.90
2022-09-17T17:30:41.713Z,99.90
2022-09-17T17:33:08.474Z,84.80
2022-09-17T17:35:38.903Z,99.90
2022-09-17T17:38:05.687Z,99.90
2022-09-17T17:40:32.615Z,99.90
2022-09-17T17:42:59.503Z,1.00
2022-09-17T17:45:26.255Z,99.90
2022-09-17T17:47:53.072Z,99.90
2022-09-17T17:50:19.927Z,99.90
2022-09-17T17:52:48.699Z,1.00
2022-09-17T17:55:15.918Z,1.00
2022-09-17T17:57:42.946Z,1.00
2022-09-17T18:00:12.423Z,1.00
2022-09-17T18:02:40.278Z,1.00
2022-09-17T18:05:07.492Z,1.00
2022-09-17T18:07:34.682Z,1.00
2022-09-17T18:10:01.491Z,1.00
2022-09-17T18:12:28.312Z,1.00
2022-09-17T18:14:55.164Z,1.00
2022-09-17T18:17:22.071Z,1.00
2022-09-17T18:19:48.899Z,1.00
2022-09-17T18:22:15.819Z,52.20
2022-09-17T18:24:42.639Z,14.90
2022-09-17T18:27:09.601Z,99.90
2022-09-17T18:29:36.461Z,99.90
2022-09-17T18:32:03.271Z,1.00
2022-09-17T18:34:30.133Z,1.00
2022-09-17T18:36:56.921Z,1.00
2022-09-17T18:42:10.688Z,99.90
2022-09-17T18:44:37.533Z,99.90
2022-09-17T18:47:04.437Z,1.00
2022-09-17T18:49:31.216Z,1.00
2022-09-17T18:51:58.018Z,1.00
2022-09-17T18:54:24.932Z,1.00
2022-09-17T18:56:51.755Z,1.00
2022-09-17T18:59:18.629Z,1.00
2022-09-17T19:01:48.970Z,1.00
2022-09-17T19:04:15.797Z,11.80
2022-09-17T19:06:42.556Z,99.90
2022-09-17T19:09:09.321Z,99.90
2022-09-17T19:11:36.583Z,1.00
2022-09-17T19:14:03.594Z,1.00
2022-09-17T19:16:30.613Z,99.90
2022-09-17T19:18:57.461Z,99.90
2022-09-17T19:21:24.368Z,1.00
2022-09-17T19:23:52.298Z,1.00
2022-09-17T19:26:22.181Z,1.00
2022-09-17T19:28:52.781Z,1.00
2022-09-17T19:31:19.913Z,1.00
2022-09-17T19:33:47.655Z,1.00
2022-09-17T19:36:16.563Z,1.00
2022-09-17T19:38:45.213Z,99.90
2022-09-17T19:41:16.911Z,99.90
2022-09-17T19:43:45.253Z,99.90
2022-09-17T19:46:17.926Z,1.00
2022-09-17T19:48:49.950Z,1.00
2022-09-17T19:51:18.059Z,1.00
2022-09-17T19:53:45.613Z,99.90
2022-09-17T19:56:14.768Z,99.90
2022-09-17T19:58:41.866Z,99.90
2022-09-17T20:01:09.070Z,99.90
2022-09-17T20:03:36.055Z,99.90
2022-09-17T20:06:05.863Z,99.90
2022-09-17T20:08:34.348Z,99.90
2022-09-17T20:11:05.507Z,99.90
2022-09-17T20:13:32.497Z,99.90
2022-09-17T20:16:06.581Z,99.90
2022-09-17T20:18:36.326Z,99.90
2022-09-17T20:21:23.626Z,99.90
2022-09-17T20:23:50.918Z,99.90
2022-09-17T20:26:17.930Z,99.90
2022-09-17T20:28:45.314Z,99.90
2022-09-17T20:31:23.705Z,99.90
2022-09-17T20:33:55.224Z,99.90
2022-09-17T20:36:24.680Z,99.90
2022-09-17T20:39:11.758Z,99.90
2022-09-17T20:41:39.171Z,1.00
2022-09-17T20:44:06.929Z,1.00
2022-09-17T20:46:33.823Z,15.90
2022-09-17T20:49:01.167Z,14.10
2022-09-17T20:51:29.841Z,1.00
2022-09-17T20:53:57.456Z,1.00
2022-09-17T20:56:26.762Z,1.00
2022-09-17T20:59:03.970Z,1.00
2022-09-17T21:01:35.782Z,1.00
2022-09-17T21:04:04.408Z,1.00
2022-09-17T21:06:33.105Z,1.00
2022-09-17T21:09:00.730Z,1.00
2022-09-17T21:11:29.097Z,99.90
2022-09-17T21:13:56.111Z,70.30
2022-09-17T21:16:22.961Z,99.90
2022-09-17T21:18:55.555Z,99.90
2022-09-17T21:21:22.333Z,99.90
2022-09-17T21:23:49.188Z,99.90
2022-09-17T21:26:17.899Z,99.90
2022-09-17T21:28:46.143Z,99.90
2022-09-17T21:31:17.265Z,99.90
2022-09-17T21:33:44.986Z,1.00
2022-09-17T21:36:19.551Z,1.00
2022-09-17T21:38:50.891Z,1.00
2022-09-17T21:41:17.637Z,1.00
2022-09-17T21:43:44.478Z,1.00
2022-09-17T21:46:16.965Z,1.00
2022-09-17T21:48:44.605Z,1.00
2022-09-17T21:51:14.229Z,1.00
2022-09-17T21:53:42.495Z,1.00
2022-09-17T21:56:14.831Z,1.00
2022-09-17T21:58:43.295Z,1.00
2022-09-17T22:01:11.802Z,1.00
2022-09-17T22:03:38.643Z,1.00
2022-09-17T22:06:06.805Z,99.90
2022-09-17T22:08:33.908Z,18.00
2022-09-17T22:11:16.075Z,99.90
2022-09-17T22:13:51.208Z,1.00
2022-09-17T22:16:18.252Z,1.00
2022-09-17T22:18:49.435Z,1.00
2022-09-17T22:21:21.750Z,99.90
2022-09-17T22:23:49.824Z,99.90
2022-09-17T22:26:17.550Z,99.90
2022-09-17T22:28:44.688Z,99.90
2022-09-17T22:31:13.065Z,99.90
2022-09-17T22:33:45.869Z,99.90
2022-09-17T22:36:20.780Z,99.90
2022-09-17T22:38:50.042Z,1.00
2022-09-17T22:41:18.841Z,1.00
2022-09-17T22:43:46.162Z,1.00
2022-09-17T22:46:15.577Z,1.00
2022-09-17T22:48:42.558Z,1.00
2022-09-17T22:51:09.849Z,1.00
2022-09-17T22:53:37.796Z,99.90
2022-09-17T22:56:06.140Z,99.90
2022-09-17T22:58:33.100Z,99.90
2022-09-17T23:01:05.047Z,99.90
2022-09-17T23:03:32.089Z,99.90
2022-09-17T23:06:00.297Z,99.90
2022-09-17T23:08:27.702Z,99.90
2022-09-17T23:10:55.289Z,99.90
2022-09-17T23:13:22.868Z,99.90
2022-09-17T23:15:49.694Z,99.90
2022-09-17T23:18:16.617Z,99.90
2022-09-17T23:20:43.398Z,99.90
2022-09-17T23:23:10.172Z,99.90
2022-09-17T23:25:36.938Z,99.90
2022-09-17T23:28:03.685Z,99.90
2022-09-17T23:30:30.472Z,1.00
2022-09-17T23:32:58.730Z,1.00
2022-09-17T23:35:25.517Z,1.00
2022-09-17T23:37:52.308Z,1.00
2022-09-17T23:40:19.705Z,1.00
2022-09-17T23:42:46.557Z,1.00
2022-09-17T23:45:13.278Z,1.00
2022-09-17T23:47:40.076Z,1.00
2022-09-17T23:50:07.144Z,1.00
2022-09-17T23:52:33.875Z,1.00
2022-09-17T23:55:00.639Z,1.00
2022-09-17T23:57:28.490Z,1.00
2022-09-17T23:59:55.266Z,99.90
